Terminal Aerodrome Forecast
Issued by NWS Cleveland, OH

Home | Current Version | Previous Version | Text Only | Print | Product List | Glossary On
Versions: 1 2 3 4 5 6 7 8 9 10 11 12 13 14 15 16 17 18 19 20 21 22 23 24 25 26 27
000
FTUS41 KCLE 251300 AAA
TAFERI
TAF AMD
KERI 251307Z 2513/2612 02012KT 4SM -SN BKN025 OVC040
      TEMPO 2513/2515 2SM -SN BR
     FM251800 05012KT P6SM OVC030
     FM260400 05012G22KT P6SM OVC035=

USA.gov is the U.S. government's official web portal to all federal, state and local government web resources and services.